Time;durP1;ratioP1;P1;durP2;ratioP2;P2;SDS_P1;SDS_P2;PMS_P1;PMS_P2;Temp;Humidity;BMP_temperature;BMP_pressure;BME280_temperature;BME280_humidity;BME280_pressure;Samples;Min_cycle;Max_cycle;Signal;HPM_P1;HPM_P2
2023/04/17 00:01:17;;;;;;;26.83;23.93;;;;;;;;;;5071490;28;20177;-82
2023/04/17 00:03:43;;;;;;;26.23;22.60;;;;;;;;;;5071562;28;20161;-79
2023/04/17 00:06:12;;;;;;;27.27;23.67;;;;;;;;;;5070655;28;20219;-81
2023/04/17 00:08:39;;;;;;;27.53;23.57;;;;;;;;;;5070858;28;20603;-80
2023/04/17 00:11:05;;;;;;;25.93;23.13;;;;;;;;;;5070949;28;20185;-79
2023/04/17 00:13:31;;;;;;;27.33;23.73;;;;;;;;;;5071327;28;20253;-84
2023/04/17 00:15:57;;;;;;;27.10;23.13;;;;;;;;;;5071188;28;20207;-78
2023/04/17 00:18:23;;;;;;;28.50;23.90;;;;;;;;;;5070112;28;20180;-84
2023/04/17 00:20:49;;;;;;;29.77;24.33;;;;;;;;;;5070978;28;20253;-81
2023/04/17 00:23:15;;;;;;;28.33;24.30;;;;;;;;;;5070380;28;20529;-81
2023/04/17 00:25:41;;;;;;;28.87;24.97;;;;;;;;;;5070581;28;20188;-86
2023/04/17 00:28:07;;;;;;;29.40;25.07;;;;;;;;;;5070372;28;20242;-81
2023/04/17 00:36:40;;;;;;;30.33;25.00;;;;;;;;;;5071161;28;20222;-81
2023/04/17 00:39:06;;;;;;;29.40;25.30;;;;;;;;;;5069535;28;20181;-78
2023/04/17 00:41:32;;;;;;;31.53;25.43;;;;;;;;;;5069598;28;20519;-80
2023/04/17 00:43:58;;;;;;;31.60;25.97;;;;;;;;;;5069445;28;20192;-84
2023/04/17 00:46:24;;;;;;;30.73;25.17;;;;;;;;;;5070317;28;20574;-84
2023/04/17 00:48:50;;;;;;;31.83;25.87;;;;;;;;;;5070400;28;20277;-84
2023/04/17 00:51:16;;;;;;;29.83;25.97;;;;;;;;;;5069332;28;20679;-84
2023/04/17 00:53:42;;;;;;;27.20;24.23;;;;;;;;;;5069899;28;20180;-83
2023/04/17 00:56:09;;;;;;;30.37;24.57;;;;;;;;;;5069088;28;20267;-82
2023/04/17 00:58:36;;;;;;;31.07;24.93;;;;;;;;;;5069570;28;20180;-80
2023/04/17 01:01:04;;;;;;;29.90;24.20;;;;;;;;;;5072026;28;20183;-82
2023/04/17 01:03:31;;;;;;;30.83;25.80;;;;;;;;;;5069373;28;20180;-84
2023/04/17 01:05:58;;;;;;;28.97;24.93;;;;;;;;;;5069961;28;20183;-84
2023/04/17 01:08:24;;;;;;;30.30;25.67;;;;;;;;;;5070267;28;20673;-83
2023/04/17 01:10:50;;;;;;;29.40;24.57;;;;;;;;;;5068269;28;20543;-83
2023/04/17 01:13:16;;;;;;;31.03;25.33;;;;;;;;;;5069527;28;20168;-84
2023/04/17 01:15:42;;;;;;;29.33;25.90;;;;;;;;;;5070086;28;20161;-79
2023/04/17 01:18:08;;;;;;;28.13;24.40;;;;;;;;;;5071124;28;20184;-79
2023/04/17 01:20:34;;;;;;;31.80;25.27;;;;;;;;;;5069413;28;20177;-84
2023/04/17 01:23:00;;;;;;;28.40;24.77;;;;;;;;;;5070083;28;20204;-80
2023/04/17 01:25:27;;;;;;;29.17;25.20;;;;;;;;;;5069611;28;20179;-82
2023/04/17 01:27:55;;;;;;;30.10;25.57;;;;;;;;;;5069398;28;20192;-85
2023/04/17 01:30:21;;;;;;;30.53;24.67;;;;;;;;;;5068632;28;20204;-81
2023/04/17 01:32:47;;;;;;;27.23;24.27;;;;;;;;;;5067603;28;20610;-80
2023/04/17 01:35:13;;;;;;;28.17;24.67;;;;;;;;;;5070238;28;20192;-81
2023/04/17 01:37:39;;;;;;;28.27;23.37;;;;;;;;;;5069173;28;20177;-84
2023/04/17 01:40:06;;;;;;;32.47;25.07;;;;;;;;;;5069983;28;20173;-86
2023/04/17 01:42:32;;;;;;;28.70;24.33;;;;;;;;;;5068943;28;20177;-84
2023/04/17 01:44:58;;;;;;;30.43;24.70;;;;;;;;;;5069340;28;20181;-81
2023/04/17 01:47:24;;;;;;;29.33;25.73;;;;;;;;;;5069602;28;20200;-85
2023/04/17 01:49:50;;;;;;;29.63;25.33;;;;;;;;;;5069319;28;20181;-84
2023/04/17 01:52:16;;;;;;;29.40;25.30;;;;;;;;;;5069692;28;20624;-82
2023/04/17 01:54:42;;;;;;;29.13;26.03;;;;;;;;;;5068502;28;20189;-82
2023/04/17 01:57:08;;;;;;;28.63;25.50;;;;;;;;;;5069606;28;20188;-85
2023/04/17 01:59:34;;;;;;;29.90;24.90;;;;;;;;;;5068872;28;20196;-80
2023/04/17 02:02:00;;;;;;;30.67;24.77;;;;;;;;;;5069282;28;20203;-84
2023/04/17 02:04:26;;;;;;;30.33;24.97;;;;;;;;;;5070147;28;20296;-83
2023/04/17 02:06:52;;;;;;;29.57;24.80;;;;;;;;;;5069580;28;20288;-85
2023/04/17 02:09:18;;;;;;;29.07;25.00;;;;;;;;;;5068546;28;20789;-82
2023/04/17 02:11:45;;;;;;;29.83;24.17;;;;;;;;;;5069387;28;20174;-83
2023/04/17 02:14:11;;;;;;;31.07;25.80;;;;;;;;;;5068861;28;20242;-82
2023/04/17 02:16:38;;;;;;;29.07;25.37;;;;;;;;;;5069010;28;20260;-86
2023/04/17 02:19:04;;;;;;;29.00;25.77;;;;;;;;;;5069841;28;20185;-83
2023/04/17 02:21:30;;;;;;;27.47;24.50;;;;;;;;;;5068579;28;20216;-82
2023/04/17 02:23:56;;;;;;;28.70;24.00;;;;;;;;;;5073047;28;20248;-82
2023/04/17 02:26:22;;;;;;;27.67;24.67;;;;;;;;;;5072544;28;20326;-80
2023/04/17 02:28:48;;;;;;;29.13;24.20;;;;;;;;;;5074051;28;20208;-81
2023/04/17 02:31:15;;;;;;;28.63;24.20;;;;;;;;;;5073039;28;20567;-81
2023/04/17 02:33:41;;;;;;;29.80;25.27;;;;;;;;;;5072353;28;20258;-81
2023/04/17 02:36:07;;;;;;;27.20;24.27;;;;;;;;;;5074438;28;20183;-80
2023/04/17 02:38:58;;;;;;;30.87;23.63;;;;;;;;;;5072380;28;20200;-84
2023/04/17 02:41:24;;;;;;;30.13;26.33;;;;;;;;;;5073413;28;20235;-83
2023/04/17 02:43:50;;;;;;;29.87;24.37;;;;;;;;;;5073061;28;20173;-83
2023/04/17 02:46:16;;;;;;;27.83;24.13;;;;;;;;;;5074855;28;20200;-84
2023/04/17 02:48:42;;;;;;;34.00;25.63;;;;;;;;;;5072377;28;20205;-84
2023/04/17 02:51:08;;;;;;;30.50;24.87;;;;;;;;;;5074219;28;20199;-85
2023/04/17 02:56:37;;;;;;;28.00;24.70;;;;;;;;;;5071295;28;20184;-85
2023/04/17 02:59:03;;;;;;;28.83;24.07;;;;;;;;;;5073602;28;24921;-85
2023/04/17 03:01:29;;;;;;;25.80;23.07;;;;;;;;;;5072975;28;20173;-83
2023/04/17 03:03:56;;;;;;;29.80;25.10;;;;;;;;;;5074845;28;20172;-80
2023/04/17 03:06:22;;;;;;;30.73;25.37;;;;;;;;;;5071441;28;20184;-80
2023/04/17 03:08:49;;;;;;;28.37;23.47;;;;;;;;;;5073211;28;20217;-81
2023/04/17 03:11:15;;;;;;;29.60;25.10;;;;;;;;;;5071827;28;20600;-81
2023/04/17 03:13:41;;;;;;;29.17;23.33;;;;;;;;;;5071181;28;20174;-85
2023/04/17 03:16:07;;;;;;;28.83;24.73;;;;;;;;;;5072114;28;20205;-84
2023/04/17 03:18:34;;;;;;;30.20;23.30;;;;;;;;;;5072392;28;20528;-80
2023/04/17 03:21:00;;;;;;;28.90;25.27;;;;;;;;;;5071530;28;20320;-83
2023/04/17 03:23:26;;;;;;;31.53;26.33;;;;;;;;;;5074487;28;20256;-78
2023/04/17 03:28:56;;;;;;;32.43;26.53;;;;;;;;;;5071749;28;20592;-84
2023/04/17 03:31:24;;;;;;;34.53;25.57;;;;;;;;;;5072924;28;20169;-81
2023/04/17 03:33:50;;;;;;;29.57;24.30;;;;;;;;;;5069721;28;20252;-81
2023/04/17 03:36:16;;;;;;;32.17;24.87;;;;;;;;;;5070627;28;20189;-78
2023/04/17 03:38:42;;;;;;;30.93;25.93;;;;;;;;;;5071020;28;20184;-80
2023/04/17 03:41:10;;;;;;;29.40;25.33;;;;;;;;;;5072118;28;20212;-79
2023/04/17 03:43:36;;;;;;;30.43;25.07;;;;;;;;;;5071676;28;20169;-83
2023/04/17 03:46:33;;;;;;;28.33;25.00;;;;;;;;;;5071164;28;20183;-80
2023/04/17 03:48:59;;;;;;;29.80;24.83;;;;;;;;;;5071081;28;20177;-81
2023/04/17 03:51:26;;;;;;;31.03;25.90;;;;;;;;;;5070503;28;20181;-85
2023/04/17 03:53:52;;;;;;;30.20;25.47;;;;;;;;;;5071514;28;20173;-78
2023/04/17 03:56:18;;;;;;;30.33;25.73;;;;;;;;;;5070702;28;20200;-81
2023/04/17 03:58:44;;;;;;;31.63;26.40;;;;;;;;;;5072322;28;20176;-84
2023/04/17 04:01:11;;;;;;;30.03;24.73;;;;;;;;;;5071765;28;20172;-81
2023/04/17 04:03:37;;;;;;;30.60;23.90;;;;;;;;;;5070133;28;20181;-80
2023/04/17 04:06:03;;;;;;;27.70;24.47;;;;;;;;;;5070566;28;20173;-84
2023/04/17 04:08:29;;;;;;;27.80;23.63;;;;;;;;;;5070844;28;20211;-84
2023/04/17 04:13:59;;;;;;;29.10;23.33;;;;;;;;;;5069741;28;20303;-86
2023/04/17 04:16:26;;;;;;;27.37;23.70;;;;;;;;;;5072132;28;20252;-80
2023/04/17 04:18:52;;;;;;;26.13;23.33;;;;;;;;;;5070003;28;20613;-79
2023/04/17 04:21:18;;;;;;;29.90;24.40;;;;;;;;;;5069418;28;20744;-86
2023/04/17 04:23:44;;;;;;;31.43;23.97;;;;;;;;;;5069157;28;20271;-84
2023/04/17 04:26:10;;;;;;;30.80;23.20;;;;;;;;;;5068041;28;20523;-84
2023/04/17 04:28:39;;;;;;;28.03;23.13;;;;;;;;;;5070227;28;20283;-79
2023/04/17 04:31:05;;;;;;;27.57;22.60;;;;;;;;;;5070095;28;20358;-83
2023/04/17 04:33:31;;;;;;;27.40;22.10;;;;;;;;;;5070618;28;20173;-81
2023/04/17 04:39:04;;;;;;;23.57;21.13;;;;;;;;;;5070785;28;20184;-81
2023/04/17 04:41:32;;;;;;;26.40;23.60;;;;;;;;;;5066617;28;20188;-82
2023/04/17 04:43:58;;;;;;;27.03;22.33;;;;;;;;;;5068171;28;20172;-84
2023/04/17 04:46:25;;;;;;;26.50;22.83;;;;;;;;;;5070183;28;20161;-79
2023/04/17 04:48:51;;;;;;;29.50;23.00;;;;;;;;;;5068904;28;20207;-82
2023/04/17 04:51:20;;;;;;;26.63;22.40;;;;;;;;;;5069132;28;20530;-85
2023/04/17 04:53:47;;;;;;;26.40;23.30;;;;;;;;;;5070077;28;20184;-84
2023/04/17 04:56:13;;;;;;;29.27;23.47;;;;;;;;;;5069337;28;20181;-87
2023/04/17 04:58:39;;;;;;;23.90;21.20;;;;;;;;;;5069776;28;20171;-82
2023/04/17 05:01:06;;;;;;;26.50;22.27;;;;;;;;;;5069225;28;20181;-82
2023/04/17 05:03:32;;;;;;;27.30;22.47;;;;;;;;;;5067250;28;20209;-80
2023/04/17 05:05:58;;;;;;;32.37;21.77;;;;;;;;;;5067550;28;20202;-80
2023/04/17 05:08:24;;;;;;;23.20;20.67;;;;;;;;;;5067142;28;20675;-80
2023/04/17 05:10:50;;;;;;;25.83;22.67;;;;;;;;;;5068217;28;20176;-81
2023/04/17 05:13:16;;;;;;;26.77;22.20;;;;;;;;;;5068310;28;20165;-80
2023/04/17 05:15:42;;;;;;;24.13;20.53;;;;;;;;;;5066830;28;20649;-80
2023/04/17 05:18:08;;;;;;;24.10;20.97;;;;;;;;;;5066637;28;20192;-81
2023/04/17 05:20:36;;;;;;;26.17;21.73;;;;;;;;;;5064797;28;20730;-80
2023/04/17 05:23:02;;;;;;;23.13;20.40;;;;;;;;;;5065406;28;20188;-79
2023/04/17 05:25:28;;;;;;;23.40;20.57;;;;;;;;;;5067297;28;20176;-80
2023/04/17 05:27:54;;;;;;;24.13;20.83;;;;;;;;;;5066014;28;20242;-80
2023/04/17 05:30:20;;;;;;;25.77;22.50;;;;;;;;;;5066010;28;20188;-80
2023/04/17 05:32:47;;;;;;;24.80;20.87;;;;;;;;;;5066123;28;20193;-80
2023/04/17 05:35:13;;;;;;;24.43;21.00;;;;;;;;;;5066050;28;20174;-80
2023/04/17 05:37:39;;;;;;;24.03;21.10;;;;;;;;;;5066462;28;20181;-80
2023/04/17 05:40:05;;;;;;;24.17;21.57;;;;;;;;;;5066453;28;20614;-80
2023/04/17 05:42:33;;;;;;;23.80;21.13;;;;;;;;;;5065631;28;20204;-80
2023/04/17 05:44:59;;;;;;;23.63;20.87;;;;;;;;;;5067505;28;20656;-80
2023/04/17 05:47:25;;;;;;;25.67;22.17;;;;;;;;;;5067585;28;20205;-80
2023/04/17 05:49:56;;;;;;;27.70;21.10;;;;;;;;;;5067871;28;20204;-80
2023/04/17 05:52:22;;;;;;;22.23;19.63;;;;;;;;;;5067745;28;20177;-80
2023/04/17 05:54:48;;;;;;;25.97;21.47;;;;;;;;;;5067624;28;20173;-81
2023/04/17 05:57:14;;;;;;;26.07;21.03;;;;;;;;;;5066780;28;20187;-81
2023/04/17 05:59:40;;;;;;;27.60;20.43;;;;;;;;;;5068899;28;20183;-80
2023/04/17 06:02:07;;;;;;;25.03;20.33;;;;;;;;;;5069910;28;20248;-81
2023/04/17 06:04:33;;;;;;;28.60;22.23;;;;;;;;;;5071464;28;20164;-80
2023/04/17 06:07:01;;;;;;;22.60;19.90;;;;;;;;;;5070258;28;20216;-81
2023/04/17 06:09:27;;;;;;;24.00;19.77;;;;;;;;;;5069048;28;20204;-81
2023/04/17 06:11:53;;;;;;;25.60;21.43;;;;;;;;;;5070508;28;20184;-81
2023/04/17 06:14:19;;;;;;;21.53;19.27;;;;;;;;;;5068860;28;20185;-81
2023/04/17 06:16:45;;;;;;;23.20;18.73;;;;;;;;;;5070741;28;20680;-81
2023/04/17 06:19:11;;;;;;;21.80;18.40;;;;;;;;;;5069783;28;20185;-81
2023/04/17 06:21:37;;;;;;;21.93;17.67;;;;;;;;;;5069811;28;20224;-81
2023/04/17 06:24:04;;;;;;;23.73;18.03;;;;;;;;;;5069511;28;20188;-81
2023/04/17 06:26:30;;;;;;;21.70;18.90;;;;;;;;;;5069035;28;20258;-80
2023/04/17 06:28:56;;;;;;;21.63;18.23;;;;;;;;;;5071801;28;20209;-81
2023/04/17 06:31:22;;;;;;;22.17;19.77;;;;;;;;;;5085782;28;20173;-81
2023/04/17 06:33:49;;;;;;;20.80;18.60;;;;;;;;;;5069616;28;20217;-81
2023/04/17 06:36:15;;;;;;;20.80;17.77;;;;;;;;;;5069578;28;20181;-81
2023/04/17 06:38:41;;;;;;;21.10;17.37;;;;;;;;;;5068682;28;20184;-80
2023/04/17 06:41:07;;;;;;;22.77;18.50;;;;;;;;;;5069277;28;20173;-81
2023/04/17 06:43:33;;;;;;;19.83;17.73;;;;;;;;;;5069180;28;20165;-81
2023/04/17 06:45:59;;;;;;;20.90;18.67;;;;;;;;;;5069308;28;20185;-81
2023/04/17 06:48:25;;;;;;;19.50;17.50;;;;;;;;;;5068803;28;20254;-81
2023/04/17 06:50:51;;;;;;;18.57;16.57;;;;;;;;;;5070569;28;20618;-81
2023/04/17 06:53:17;;;;;;;19.70;17.10;;;;;;;;;;5069191;28;20178;-85
2023/04/17 06:55:44;;;;;;;25.07;19.03;;;;;;;;;;5069848;28;20168;-84
2023/04/17 06:58:10;;;;;;;20.53;18.27;;;;;;;;;;5068765;28;20185;-81
2023/04/17 07:00:37;;;;;;;20.03;18.00;;;;;;;;;;5068186;28;20189;-85
2023/04/17 07:03:03;;;;;;;20.20;17.60;;;;;;;;;;5069339;28;20222;-84
2023/04/17 07:05:29;;;;;;;24.07;18.47;;;;;;;;;;5069254;28;20196;-81
2023/04/17 07:07:55;;;;;;;23.40;17.20;;;;;;;;;;5071659;28;20654;-83
2023/04/17 07:10:21;;;;;;;19.77;17.00;;;;;;;;;;5066988;28;20196;-83
2023/04/17 07:12:47;;;;;;;21.57;17.77;;;;;;;;;;5069962;28;20178;-85
2023/04/17 07:15:13;;;;;;;18.97;16.80;;;;;;;;;;5069065;28;20197;-82
2023/04/17 07:17:39;;;;;;;21.13;18.93;;;;;;;;;;5067932;28;20185;-83
2023/04/17 07:20:06;;;;;;;19.03;17.03;;;;;;;;;;5069001;28;20610;-82
2023/04/17 07:22:33;;;;;;;21.63;18.53;;;;;;;;;;5070343;28;20247;-83
2023/04/17 07:24:59;;;;;;;22.80;18.40;;;;;;;;;;5069929;28;20209;-81
2023/04/17 07:27:28;;;;;;;18.17;16.23;;;;;;;;;;5067576;28;20240;-80
2023/04/17 07:29:54;;;;;;;18.10;16.23;;;;;;;;;;5068776;28;20572;-80
2023/04/17 07:32:20;;;;;;;20.63;17.10;;;;;;;;;;5069062;28;20193;-81
2023/04/17 07:34:47;;;;;;;18.63;16.73;;;;;;;;;;5069715;28;20647;-83
2023/04/17 07:37:16;;;;;;;20.73;18.53;;;;;;;;;;5068916;28;20197;-82
2023/04/17 07:39:43;;;;;;;18.90;17.00;;;;;;;;;;5068578;28;20199;-82
2023/04/17 07:42:10;;;;;;;19.30;16.00;;;;;;;;;;5068005;28;20646;-84
2023/04/17 07:47:39;;;;;;;19.50;15.90;;;;;;;;;;5068217;28;20204;-83
2023/04/17 07:50:06;;;;;;;19.00;16.37;;;;;;;;;;5069646;28;20177;-84
2023/04/17 07:52:32;;;;;;;19.30;16.47;;;;;;;;;;5068263;28;20552;-82
2023/04/17 07:54:57;;;;;;;18.23;16.10;;;;;;;;;;5068136;28;20200;-82
2023/04/17 07:57:26;;;;;;;19.07;17.07;;;;;;;;;;5066993;28;20185;-83
2023/04/17 07:59:52;;;;;;;18.37;15.97;;;;;;;;;;5068335;28;20208;-81
2023/04/17 08:02:18;;;;;;;18.77;16.80;;;;;;;;;;5069392;28;20173;-82
2023/04/17 08:04:45;;;;;;;21.27;16.53;;;;;;;;;;5068573;28;20605;-81
2023/04/17 08:07:11;;;;;;;18.00;16.07;;;;;;;;;;5067700;28;20204;-83
2023/04/17 08:09:38;;;;;;;19.77;15.43;;;;;;;;;;5068039;28;20181;-80
2023/04/17 08:12:04;;;;;;;17.67;15.77;;;;;;;;;;5067650;28;20173;-83
2023/04/17 08:14:30;;;;;;;16.43;14.67;;;;;;;;;;5066490;28;20185;-83
2023/04/17 08:16:57;;;;;;;18.57;16.73;;;;;;;;;;5068978;28;20169;-80
2023/04/17 08:19:23;;;;;;;18.33;16.53;;;;;;;;;;5067201;28;20177;-82
2023/04/17 08:21:49;;;;;;;18.83;16.87;;;;;;;;;;5068403;28;20220;-81
2023/04/17 08:24:16;;;;;;;18.73;16.43;;;;;;;;;;5067176;28;20701;-84
2023/04/17 08:26:42;;;;;;;17.53;15.57;;;;;;;;;;5066709;28;20280;-85
2023/04/17 08:29:11;;;;;;;17.10;15.30;;;;;;;;;;5067733;28;20200;-85
2023/04/17 08:31:38;;;;;;;18.17;15.37;;;;;;;;;;5067532;28;20176;-83
2023/04/17 08:34:04;;;;;;;18.00;16.10;;;;;;;;;;5067291;28;20174;-82
2023/04/17 08:36:31;;;;;;;17.20;15.00;;;;;;;;;;5066770;28;20169;-84
2023/04/17 08:38:57;;;;;;;16.27;14.57;;;;;;;;;;5067611;28;20177;-83
2023/04/17 08:41:26;;;;;;;18.07;15.50;;;;;;;;;;5068149;28;20667;-80
2023/04/17 08:43:52;;;;;;;18.77;15.43;;;;;;;;;;5068481;28;20612;-80
2023/04/17 08:46:22;;;;;;;18.37;15.60;;;;;;;;;;5067082;28;20219;-81
2023/04/17 08:48:48;;;;;;;18.33;15.37;;;;;;;;;;5066007;28;20201;-82
2023/04/17 08:51:14;;;;;;;17.50;15.20;;;;;;;;;;5067447;28;20192;-85
2023/04/17 08:53:40;;;;;;;16.87;14.97;;;;;;;;;;5066655;28;20177;-82
2023/04/17 08:56:06;;;;;;;17.27;14.47;;;;;;;;;;5069076;28;20684;-82
2023/04/17 08:58:33;;;;;;;15.83;14.17;;;;;;;;;;5083477;28;20617;-83
2023/04/17 09:01:14;;;;;;;17.83;14.87;;;;;;;;;;5066936;28;20180;-82
2023/04/17 09:03:45;;;;;;;18.53;16.10;;;;;;;;;;5066047;28;20611;-82
2023/04/17 09:06:11;;;;;;;17.73;15.53;;;;;;;;;;5066931;28;20189;-80
2023/04/17 09:08:38;;;;;;;18.73;15.57;;;;;;;;;;5066334;28;20201;-85
2023/04/17 09:11:04;;;;;;;17.30;14.40;;;;;;;;;;5067996;28;20170;-84
2023/04/17 09:13:38;;;;;;;18.17;15.97;;;;;;;;;;5066058;28;20185;-83
2023/04/17 09:16:05;;;;;;;20.30;14.53;;;;;;;;;;5066761;28;20617;-79
2023/04/17 09:18:32;;;;;;;17.70;14.03;;;;;;;;;;5065814;28;20204;-81
2023/04/17 09:20:58;;;;;;;19.70;14.57;;;;;;;;;;5066409;28;20209;-83
2023/04/17 09:23:26;;;;;;;19.27;14.90;;;;;;;;;;5065887;28;20161;-81
2023/04/17 09:26:07;;;;;;;18.33;15.10;;;;;;;;;;5067259;28;20671;-84
2023/04/17 09:28:34;;;;;;;19.33;15.83;;;;;;;;;;5067182;28;20209;-82
2023/04/17 09:31:04;;;;;;;20.03;16.00;;;;;;;;;;5066756;28;20185;-80
2023/04/17 09:33:30;;;;;;;18.27;15.07;;;;;;;;;;5065008;28;20614;-83
2023/04/17 09:36:17;;;;;;;20.90;15.70;;;;;;;;;;5066840;28;20173;-82
2023/04/17 09:38:43;;;;;;;20.37;15.47;;;;;;;;;;5066313;28;20321;-86
2023/04/17 09:41:26;;;;;;;18.60;15.93;;;;;;;;;;5068616;28;20502;-81
2023/04/17 09:44:00;;;;;;;19.47;16.53;;;;;;;;;;5068300;28;20169;-85
2023/04/17 09:46:32;;;;;;;19.63;15.67;;;;;;;;;;5067602;28;20172;-81
2023/04/17 09:49:01;;;;;;;18.30;14.87;;;;;;;;;;5066990;28;20205;-82
2023/04/17 09:51:27;;;;;;;17.03;14.87;;;;;;;;;;5066684;28;20193;-83
2023/04/17 09:53:55;;;;;;;17.53;14.37;;;;;;;;;;5067476;28;20169;-85
2023/04/17 09:56:23;;;;;;;17.90;14.93;;;;;;;;;;5066033;28;20181;-80
2023/04/17 09:58:49;;;;;;;17.37;15.63;;;;;;;;;;5066477;28;20678;-82
2023/04/17 10:01:16;;;;;;;19.87;16.00;;;;;;;;;;5067174;28;20192;-83
2023/04/17 10:03:42;;;;;;;17.83;15.33;;;;;;;;;;5065669;28;20192;-83
2023/04/17 10:06:08;;;;;;;18.27;16.13;;;;;;;;;;5065884;28;20184;-83
2023/04/17 10:09:07;;;;;;;21.67;15.10;;;;;;;;;;5065731;28;20542;-81
2023/04/17 10:11:37;;;;;;;17.33;15.43;;;;;;;;;;5064876;28;20288;-81
2023/04/17 10:14:11;;;;;;;16.60;14.80;;;;;;;;;;5066678;28;20181;-82
2023/04/17 10:16:38;;;;;;;17.20;14.53;;;;;;;;;;5066832;28;20173;-80
2023/04/17 10:19:23;;;;;;;15.47;13.87;;;;;;;;;;5066123;28;20197;-84
2023/04/17 10:25:13;;;;;;;19.33;14.90;;;;;;;;;;5044109;28;20727;-83
2023/04/17 10:27:39;;;;;;;16.47;14.77;;;;;;;;;;5019739;28;20201;-81
2023/04/17 10:30:11;;;;;;;19.50;13.90;;;;;;;;;;5027630;28;20281;-83
2023/04/17 10:32:57;;;;;;;15.30;13.63;;;;;;;;;;5043941;28;20178;-83
2023/04/17 10:35:23;;;;;;;18.17;14.97;;;;;;;;;;5019849;28;20182;-84
2023/04/17 10:37:50;;;;;;;20.77;15.57;;;;;;;;;;5027889;28;20188;-79
2023/04/17 10:40:20;;;;;;;16.47;13.10;;;;;;;;;;5022588;28;20194;-81
2023/04/17 10:43:02;;;;;;;13.37;12.07;;;;;;;;;;5042785;28;20193;-83
2023/04/17 10:45:48;;;;;;;16.00;12.10;;;;;;;;;;5046787;28;20184;-81
2023/04/17 10:48:40;;;;;;;17.37;13.93;;;;;;;;;;5030317;28;20623;-81
2023/04/17 10:51:27;;;;;;;15.47;13.83;;;;;;;;;;5047615;28;20182;-80
2023/04/17 10:53:54;;;;;;;13.70;11.97;;;;;;;;;;5030998;28;20714;-80
2023/04/17 10:56:29;;;;;;;16.40;12.83;;;;;;;;;;5048567;28;20188;-80
2023/04/17 10:59:28;;;;;;;15.27;13.37;;;;;;;;;;5055635;28;20220;-83
2023/04/17 11:01:56;;;;;;;14.20;12.17;;;;;;;;;;5060186;28;20177;-85
2023/04/17 11:04:32;;;;;;;15.63;12.50;;;;;;;;;;5069412;28;20192;-85
2023/04/17 11:06:59;;;;;;;16.57;12.77;;;;;;;;;;5068926;28;20183;-82
2023/04/17 11:09:27;;;;;;;18.47;13.27;;;;;;;;;;5068914;28;20284;-85
2023/04/17 11:11:53;;;;;;;17.33;12.67;;;;;;;;;;5068705;28;20650;-83
2023/04/17 11:14:21;;;;;;;17.33;13.90;;;;;;;;;;5070276;28;20207;-84
2023/04/17 11:16:48;;;;;;;16.77;13.17;;;;;;;;;;5068248;28;20498;-86
2023/04/17 11:19:18;;;;;;;16.13;13.10;;;;;;;;;;5068680;28;20656;-82
2023/04/17 11:21:45;;;;;;;14.10;12.43;;;;;;;;;;5067152;28;20213;-81
2023/04/17 11:24:11;;;;;;;15.77;13.00;;;;;;;;;;5069146;28;20558;-83
2023/04/17 11:26:41;;;;;;;16.80;12.27;;;;;;;;;;5067542;28;20173;-81
2023/04/17 11:29:17;;;;;;;13.37;11.97;;;;;;;;;;5069492;28;20682;-82
2023/04/17 11:31:47;;;;;;;19.30;12.97;;;;;;;;;;5066889;28;20181;-81
2023/04/17 11:34:14;;;;;;;13.63;11.60;;;;;;;;;;5067877;28;20242;-85
2023/04/17 11:36:40;;;;;;;15.07;12.37;;;;;;;;;;5067750;28;20192;-82
2023/04/17 11:39:07;;;;;;;14.40;12.43;;;;;;;;;;5068312;28;20181;-82
2023/04/17 11:44:45;;;;;;;14.13;11.77;;;;;;;;;;5068654;28;20275;-84
2023/04/17 11:47:11;;;;;;;12.33;10.93;;;;;;;;;;5069184;28;20201;-81
2023/04/17 11:49:38;;;;;;;13.43;11.77;;;;;;;;;;5068122;28;20208;-81
2023/04/17 11:52:04;;;;;;;13.03;10.60;;;;;;;;;;5066287;28;20192;-80
2023/04/17 11:54:33;;;;;;;16.83;10.20;;;;;;;;;;5067564;28;20185;-84
2023/04/17 11:57:01;;;;;;;13.57;10.37;;;;;;;;;;5067314;28;20192;-83
2023/04/17 11:59:34;;;;;;;13.77;10.40;;;;;;;;;;5069071;28;20172;-84
2023/04/17 12:02:00;;;;;;;12.70;9.87;;;;;;;;;;5085533;28;20200;-83
2023/04/17 12:04:32;;;;;;;10.60;9.20;;;;;;;;;;5068083;28;20184;-83
2023/04/17 12:06:58;;;;;;;11.47;9.07;;;;;;;;;;5068081;28;20197;-84
2023/04/17 12:09:30;;;;;;;9.83;8.57;;;;;;;;;;5068388;28;20207;-85
2023/04/17 12:11:57;;;;;;;9.90;8.80;;;;;;;;;;5069624;28;20172;-83
2023/04/17 12:14:23;;;;;;;14.73;9.77;;;;;;;;;;5069891;28;20260;-85
2023/04/17 12:16:50;;;;;;;10.30;8.77;;;;;;;;;;5069719;28;20173;-86
2023/04/17 12:19:16;;;;;;;12.97;9.13;;;;;;;;;;5070693;28;20200;-83
2023/04/17 12:21:43;;;;;;;11.47;9.80;;;;;;;;;;5066662;28;20576;-79
2023/04/17 12:24:09;;;;;;;11.73;9.00;;;;;;;;;;5070190;28;20227;-87
2023/04/17 12:26:35;;;;;;;11.97;8.07;;;;;;;;;;5069138;28;20169;-84
2023/04/17 12:29:01;;;;;;;12.97;8.83;;;;;;;;;;5067740;28;20223;-81
2023/04/17 12:31:27;;;;;;;9.33;8.43;;;;;;;;;;5068248;28;20196;-85
2023/04/17 12:33:53;;;;;;;16.03;9.43;;;;;;;;;;5068446;28;20174;-83
2023/04/17 12:36:19;;;;;;;12.43;9.37;;;;;;;;;;5069375;28;20173;-82
2023/04/17 12:38:45;;;;;;;12.33;9.47;;;;;;;;;;5068991;28;20669;-83
2023/04/17 12:41:11;;;;;;;9.83;8.37;;;;;;;;;;5070150;28;20249;-83
2023/04/17 12:43:38;;;;;;;9.03;8.13;;;;;;;;;;5068303;28;20177;-84
2023/04/17 12:46:04;;;;;;;10.93;8.10;;;;;;;;;;5068926;28;20184;-84
2023/04/17 12:48:30;;;;;;;9.57;7.90;;;;;;;;;;5068273;28;20592;-82
2023/04/17 12:50:56;;;;;;;12.67;8.27;;;;;;;;;;5069445;28;20186;-83
2023/04/17 12:53:22;;;;;;;10.27;7.43;;;;;;;;;;5071156;28;20608;-80
2023/04/17 12:55:48;;;;;;;8.53;7.27;;;;;;;;;;5068651;28;20169;-86
2023/04/17 12:58:14;;;;;;;9.57;7.77;;;;;;;;;;5069912;28;20630;-81
2023/04/17 13:00:44;;;;;;;9.97;8.37;;;;;;;;;;5067667;28;20181;-83
2023/04/17 13:03:10;;;;;;;9.30;8.17;;;;;;;;;;5069615;28;20233;-83
2023/04/17 13:05:36;;;;;;;9.57;8.03;;;;;;;;;;5070629;28;20236;-80
2023/04/17 13:08:02;;;;;;;15.20;8.50;;;;;;;;;;5070552;28;20200;-83
2023/04/17 13:10:28;;;;;;;10.20;8.60;;;;;;;;;;5069583;28;20188;-83
2023/04/17 13:12:54;;;;;;;9.40;7.83;;;;;;;;;;5068910;28;20188;-84
2023/04/17 13:15:20;;;;;;;9.63;7.87;;;;;;;;;;5063451;28;20189;-83
2023/04/17 13:17:46;;;;;;;11.10;8.00;;;;;;;;;;5065212;28;20654;-81
2023/04/17 13:20:12;;;;;;;8.40;7.60;;;;;;;;;;5068306;28;20177;-86
2023/04/17 13:22:39;;;;;;;9.97;7.90;;;;;;;;;;5067288;28;20609;-82
2023/04/17 13:25:05;;;;;;;9.87;7.63;;;;;;;;;;5066296;28;20197;-84
2023/04/17 13:27:31;;;;;;;9.00;7.90;;;;;;;;;;5068146;28;20269;-80
2023/04/17 13:29:57;;;;;;;9.50;7.87;;;;;;;;;;5066990;28;20798;-82
2023/04/17 13:32:23;;;;;;;10.57;7.67;;;;;;;;;;5068727;28;20188;-80
2023/04/17 13:34:49;;;;;;;11.13;8.03;;;;;;;;;;5066377;28;20636;-83
2023/04/17 13:37:15;;;;;;;13.27;8.13;;;;;;;;;;5066579;28;20188;-82
2023/04/17 13:39:41;;;;;;;11.33;8.03;;;;;;;;;;5067274;28;20169;-78
2023/04/17 13:42:08;;;;;;;8.30;7.40;;;;;;;;;;5067441;28;20189;-83
2023/04/17 13:44:34;;;;;;;11.17;8.00;;;;;;;;;;5069017;28;20222;-83
2023/04/17 13:47:02;;;;;;;13.57;7.90;;;;;;;;;;5066119;28;20547;-79
2023/04/17 13:49:28;;;;;;;12.33;7.90;;;;;;;;;;5066530;28;20216;-79
2023/04/17 13:51:54;;;;;;;11.73;7.57;;;;;;;;;;5067073;28;20527;-82
2023/04/17 13:54:20;;;;;;;8.97;6.80;;;;;;;;;;5066945;28;20201;-81
2023/04/17 13:56:47;;;;;;;11.63;6.10;;;;;;;;;;5066989;28;20172;-79
2023/04/17 13:59:13;;;;;;;7.00;5.87;;;;;;;;;;5067489;28;20196;-81
2023/04/17 14:01:39;;;;;;;8.23;5.27;;;;;;;;;;5066479;28;20262;-83
2023/04/17 14:04:05;;;;;;;8.63;6.33;;;;;;;;;;5067158;28;20216;-78
2023/04/17 14:06:33;;;;;;;7.30;5.73;;;;;;;;;;5066514;28;20626;-80
2023/04/17 14:08:59;;;;;;;8.57;5.90;;;;;;;;;;5065932;28;20544;-80
2023/04/17 14:11:25;;;;;;;6.77;6.07;;;;;;;;;;5076497;28;20169;-81
2023/04/17 14:13:52;;;;;;;9.13;6.47;;;;;;;;;;5067733;28;20180;-85
2023/04/17 14:16:18;;;;;;;7.10;5.97;;;;;;;;;;5066464;28;20199;-84
2023/04/17 14:18:50;;;;;;;8.20;6.30;;;;;;;;;;5070194;28;20515;-80
2023/04/17 14:21:17;;;;;;;6.93;6.23;;;;;;;;;;5071013;28;20185;-79
2023/04/17 14:23:43;;;;;;;9.83;6.10;;;;;;;;;;5073333;28;20527;-82
2023/04/17 14:26:10;;;;;;;9.30;5.47;;;;;;;;;;5071177;28;20172;-79
2023/04/17 14:28:36;;;;;;;8.53;5.50;;;;;;;;;;5071465;28;20262;-81
2023/04/17 14:31:03;;;;;;;7.93;5.60;;;;;;;;;;5071050;28;20549;-79
2023/04/17 14:33:29;;;;;;;14.03;6.27;;;;;;;;;;5071127;28;20187;-80
2023/04/17 14:35:56;;;;;;;9.43;6.20;;;;;;;;;;5070661;28;20157;-82
2023/04/17 14:38:22;;;;;;;6.63;5.60;;;;;;;;;;5079922;28;20267;-82
2023/04/17 14:40:48;;;;;;;8.03;5.73;;;;;;;;;;5070723;28;20208;-82
2023/04/17 14:43:14;;;;;;;18.70;6.50;;;;;;;;;;5069817;28;20181;-82
2023/04/17 14:45:42;;;;;;;7.87;5.60;;;;;;;;;;5071037;28;20543;-84
2023/04/17 14:48:08;;;;;;;9.40;6.27;;;;;;;;;;5069994;28;20206;-81
2023/04/17 14:50:34;;;;;;;7.47;5.80;;;;;;;;;;5073042;28;20165;-81